sensor_id;sensor_type;location;lat;lon;timestamp;pressure;altitude;pressure_sealevel;temperature;humidity
57847;BME280;43675;50.030;21.952;2023-08-01T00:00:52;98131.75;;;13.75;83.08
57847;BME280;43675;50.030;21.952;2023-08-01T00:03:27;98132.59;;;13.73;83.28
57847;BME280;43675;50.030;21.952;2023-08-01T00:05:54;98131.71;;;13.72;83.34
57847;BME280;43675;50.030;21.952;2023-08-01T00:08:21;98130.49;;;13.69;83.32
57847;BME280;43675;50.030;21.952;2023-08-01T00:10:48;98128.94;;;13.67;83.46
57847;BME280;43675;50.030;21.952;2023-08-01T00:13:15;98131.30;;;13.65;83.46
57847;BME280;43675;50.030;21.952;2023-08-01T00:15:41;98131.17;;;13.76;83.46
57847;BME280;43675;50.030;21.952;2023-08-01T00:18:07;98128.83;;;13.89;83.04
57847;BME280;43675;50.030;21.952;2023-08-01T00:20:34;98130.25;;;13.98;82.84
57847;BME280;43675;50.030;21.952;2023-08-01T00:23:00;98132.55;;;13.90;82.95
57847;BME280;43675;50.030;21.952;2023-08-01T00:25:27;98131.48;;;13.79;83.42
57847;BME280;43675;50.030;21.952;2023-08-01T00:27:54;98126.39;;;13.70;83.64
57847;BME280;43675;50.030;21.952;2023-08-01T00:30:20;98128.75;;;13.65;83.92
57847;BME280;43675;50.030;21.952;2023-08-01T00:32:47;98124.68;;;13.60;84.20
57847;BME280;43675;50.030;21.952;2023-08-01T00:35:13;98121.53;;;13.58;84.43
57847;BME280;43675;50.030;21.952;2023-08-01T00:37:40;98120.05;;;13.56;84.70
57847;BME280;43675;50.030;21.952;2023-08-01T00:40:07;98122.03;;;13.55;84.71
57847;BME280;43675;50.030;21.952;2023-08-01T00:42:36;98123.77;;;13.53;84.77
57847;BME280;43675;50.030;21.952;2023-08-01T00:45:04;98124.29;;;13.51;84.79
57847;BME280;43675;50.030;21.952;2023-08-01T00:47:30;98123.61;;;13.50;84.95
57847;BME280;43675;50.030;21.952;2023-08-01T00:49:57;98119.74;;;13.47;84.94
57847;BME280;43675;50.030;21.952;2023-08-01T00:52:24;98124.11;;;13.43;85.05
57847;BME280;43675;50.030;21.952;2023-08-01T00:54:52;98123.45;;;13.40;85.09
57847;BME280;43675;50.030;21.952;2023-08-01T00:57:18;98119.14;;;13.36;85.17
57847;BME280;43675;50.030;21.952;2023-08-01T00:59:45;98117.81;;;13.30;85.17
57847;BME280;43675;50.030;21.952;2023-08-01T01:02:11;98114.48;;;13.24;85.28
57847;BME280;43675;50.030;21.952;2023-08-01T01:04:38;98111.77;;;13.20;85.39
57847;BME280;43675;50.030;21.952;2023-08-01T01:07:06;98112.04;;;13.16;85.46
57847;BME280;43675;50.030;21.952;2023-08-01T01:09:33;98112.45;;;13.13;85.58
57847;BME280;43675;50.030;21.952;2023-08-01T01:12:00;98111.93;;;13.11;85.66
57847;BME280;43675;50.030;21.952;2023-08-01T01:14:27;98104.95;;;13.07;85.84
57847;BME280;43675;50.030;21.952;2023-08-01T01:16:54;98103.23;;;13.04;85.91
57847;BME280;43675;50.030;21.952;2023-08-01T01:19:21;98102.29;;;13.03;86.04
57847;BME280;43675;50.030;21.952;2023-08-01T01:21:48;98099.02;;;13.01;86.14
57847;BME280;43675;50.030;21.952;2023-08-01T01:24:35;98093.43;;;12.99;86.17
57847;BME280;43675;50.030;21.952;2023-08-01T01:27:04;98095.02;;;13.00;86.33
57847;BME280;43675;50.030;21.952;2023-08-01T01:29:32;98086.98;;;13.00;86.43
57847;BME280;43675;50.030;21.952;2023-08-01T01:32:03;98087.40;;;12.99;86.55
57847;BME280;43675;50.030;21.952;2023-08-01T01:34:30;98084.45;;;12.99;86.50
57847;BME280;43675;50.030;21.952;2023-08-01T01:36:57;98081.26;;;12.99;86.65
57847;BME280;43675;50.030;21.952;2023-08-01T01:39:23;98086.95;;;12.96;86.74
57847;BME280;43675;50.030;21.952;2023-08-01T01:41:50;98082.61;;;12.96;86.85
57847;BME280;43675;50.030;21.952;2023-08-01T01:44:16;98082.89;;;12.96;86.96
57847;BME280;43675;50.030;21.952;2023-08-01T01:46:43;98078.02;;;12.97;87.03
57847;BME280;43675;50.030;21.952;2023-08-01T01:49:09;98075.25;;;13.00;87.13
57847;BME280;43675;50.030;21.952;2023-08-01T01:51:36;98070.55;;;13.02;87.20
57847;BME280;43675;50.030;21.952;2023-08-01T01:54:02;98067.45;;;13.04;87.29
57847;BME280;43675;50.030;21.952;2023-08-01T01:56:29;98062.15;;;13.05;87.32
57847;BME280;43675;50.030;21.952;2023-08-01T01:58:55;98057.31;;;13.06;87.40
57847;BME280;43675;50.030;21.952;2023-08-01T02:01:22;98055.37;;;13.06;87.54
57847;BME280;43675;50.030;21.952;2023-08-01T02:03:48;98051.80;;;13.06;87.45
57847;BME280;43675;50.030;21.952;2023-08-01T02:06:15;98047.00;;;13.08;87.39
57847;BME280;43675;50.030;21.952;2023-08-01T02:08:41;98048.00;;;13.07;87.46
57847;BME280;43675;50.030;21.952;2023-08-01T02:11:08;98052.04;;;13.03;87.48
57847;BME280;43675;50.030;21.952;2023-08-01T02:13:34;98048.13;;;13.01;87.50
57847;BME280;43675;50.030;21.952;2023-08-01T02:16:01;98046.13;;;12.98;87.54
57847;BME280;43675;50.030;21.952;2023-08-01T02:18:27;98049.27;;;12.96;87.59
57847;BME280;43675;50.030;21.952;2023-08-01T02:20:54;98047.08;;;12.93;87.55
57847;BME280;43675;50.030;21.952;2023-08-01T02:23:20;98045.46;;;12.90;87.64
57847;BME280;43675;50.030;21.952;2023-08-01T02:25:47;98048.88;;;12.88;87.81
57847;BME280;43675;50.030;21.952;2023-08-01T02:28:13;98044.55;;;12.88;88.07
57847;BME280;43675;50.030;21.952;2023-08-01T02:30:40;98037.47;;;12.88;88.09
57847;BME280;43675;50.030;21.952;2023-08-01T02:33:06;98036.48;;;12.91;88.35
57847;BME280;43675;50.030;21.952;2023-08-01T02:35:33;98035.60;;;12.93;88.38
57847;BME280;43675;50.030;21.952;2023-08-01T02:37:59;98031.00;;;12.95;88.38
57847;BME280;43675;50.030;21.952;2023-08-01T02:40:26;98024.35;;;12.97;88.41
57847;BME280;43675;50.030;21.952;2023-08-01T02:42:52;98021.57;;;12.99;88.57
57847;BME280;43675;50.030;21.952;2023-08-01T02:45:19;98020.32;;;13.01;88.58
57847;BME280;43675;50.030;21.952;2023-08-01T02:47:45;98015.73;;;13.04;88.72
57847;BME280;43675;50.030;21.952;2023-08-01T02:50:12;98010.41;;;13.08;88.88
57847;BME280;43675;50.030;21.952;2023-08-01T02:52:38;98011.05;;;13.13;88.92
57847;BME280;43675;50.030;21.952;2023-08-01T02:55:05;98011.31;;;13.19;89.10
57847;BME280;43675;50.030;21.952;2023-08-01T02:57:32;98013.17;;;13.26;89.09
57847;BME280;43675;50.030;21.952;2023-08-01T02:59:58;98002.55;;;13.35;89.21
57847;BME280;43675;50.030;21.952;2023-08-01T03:02:25;97997.54;;;13.44;89.16
57847;BME280;43675;50.030;21.952;2023-08-01T03:04:51;97994.83;;;13.50;89.03
57847;BME280;43675;50.030;21.952;2023-08-01T03:07:18;97990.42;;;13.56;88.98
57847;BME280;43675;50.030;21.952;2023-08-01T03:09:44;97988.97;;;13.61;88.93
57847;BME280;43675;50.030;21.952;2023-08-01T03:12:11;97985.03;;;13.64;88.79
57847;BME280;43675;50.030;21.952;2023-08-01T03:14:37;97985.41;;;13.67;88.76
57847;BME280;43675;50.030;21.952;2023-08-01T03:17:04;97983.55;;;13.71;88.91
57847;BME280;43675;50.030;21.952;2023-08-01T03:19:31;97978.42;;;13.75;88.80
57847;BME280;43675;50.030;21.952;2023-08-01T03:21:57;97975.72;;;13.79;88.86
57847;BME280;43675;50.030;21.952;2023-08-01T03:24:24;97973.67;;;13.83;88.68
57847;BME280;43675;50.030;21.952;2023-08-01T03:26:50;97972.71;;;13.85;88.56
57847;BME280;43675;50.030;21.952;2023-08-01T03:29:17;97975.21;;;13.87;88.46
57847;BME280;43675;50.030;21.952;2023-08-01T03:31:43;97974.41;;;13.87;88.30
57847;BME280;43675;50.030;21.952;2023-08-01T03:34:10;97970.16;;;13.88;88.20
57847;BME280;43675;50.030;21.952;2023-08-01T03:36:36;97966.55;;;13.88;88.08
57847;BME280;43675;50.030;21.952;2023-08-01T03:39:03;97966.70;;;13.88;88.03
57847;BME280;43675;50.030;21.952;2023-08-01T03:41:29;97969.63;;;13.89;87.96
57847;BME280;43675;50.030;21.952;2023-08-01T03:43:56;97971.19;;;13.89;87.92
57847;BME280;43675;50.030;21.952;2023-08-01T03:46:22;97970.40;;;13.91;87.80
57847;BME280;43675;50.030;21.952;2023-08-01T03:48:49;97970.91;;;13.93;87.81
57847;BME280;43675;50.030;21.952;2023-08-01T03:51:15;97968.98;;;13.99;87.96
57847;BME280;43675;50.030;21.952;2023-08-01T03:53:42;97970.34;;;14.09;87.88
57847;BME280;43675;50.030;21.952;2023-08-01T03:56:08;97974.14;;;14.21;87.94
57847;BME280;43675;50.030;21.952;2023-08-01T03:58:35;97965.67;;;14.34;87.90
57847;BME280;43675;50.030;21.952;2023-08-01T04:01:01;97963.69;;;14.49;87.77
57847;BME280;43675;50.030;21.952;2023-08-01T04:03:28;97965.02;;;14.66;87.59
57847;BME280;43675;50.030;21.952;2023-08-01T04:05:54;97962.30;;;14.85;87.36
57847;BME280;43675;50.030;21.952;2023-08-01T04:08:21;97950.15;;;15.01;86.98
57847;BME280;43675;50.030;21.952;2023-08-01T04:10:48;97951.33;;;15.16;86.53
57847;BME280;43675;50.030;21.952;2023-08-01T04:13:15;97953.91;;;15.31;86.09
57847;BME280;43675;50.030;21.952;2023-08-01T04:15:42;97951.75;;;15.42;85.57
57847;BME280;43675;50.030;21.952;2023-08-01T04:18:08;97947.27;;;15.50;85.20
57847;BME280;43675;50.030;21.952;2023-08-01T04:20:35;97941.61;;;15.56;84.68
57847;BME280;43675;50.030;21.952;2023-08-01T04:23:01;97944.54;;;15.57;84.31
57847;BME280;43675;50.030;21.952;2023-08-01T04:25:28;97941.46;;;15.58;83.91
57847;BME280;43675;50.030;21.952;2023-08-01T04:27:54;97942.98;;;15.70;83.50
57847;BME280;43675;50.030;21.952;2023-08-01T04:30:21;97936.91;;;15.68;83.10
57847;BME280;43675;50.030;21.952;2023-08-01T04:32:47;97935.38;;;15.64;83.05
57847;BME280;43675;50.030;21.952;2023-08-01T04:35:14;97931.42;;;15.60;83.04
57847;BME280;43675;50.030;21.952;2023-08-01T04:37:40;97929.14;;;15.60;83.11
57847;BME280;43675;50.030;21.952;2023-08-01T04:40:07;97924.61;;;15.62;83.11
57847;BME280;43675;50.030;21.952;2023-08-01T04:42:34;97923.70;;;15.69;83.11
57847;BME280;43675;50.030;21.952;2023-08-01T04:45:01;97918.21;;;15.75;82.91
57847;BME280;43675;50.030;21.952;2023-08-01T04:47:27;97919.04;;;15.81;82.79
57847;BME280;43675;50.030;21.952;2023-08-01T04:49:55;97916.24;;;15.88;82.64
57847;BME280;43675;50.030;21.952;2023-08-01T04:52:21;97918.98;;;15.96;82.45
57847;BME280;43675;50.030;21.952;2023-08-01T04:54:48;97916.45;;;16.06;82.34
57847;BME280;43675;50.030;21.952;2023-08-01T04:57:15;97912.46;;;16.19;82.24
57847;BME280;43675;50.030;21.952;2023-08-01T04:59:41;97915.73;;;16.32;82.09
57847;BME280;43675;50.030;21.952;2023-08-01T05:02:08;97914.33;;;16.46;81.90
57847;BME280;43675;50.030;21.952;2023-08-01T05:04:34;97910.85;;;16.60;81.63
57847;BME280;43675;50.030;21.952;2023-08-01T05:07:01;97905.95;;;16.72;81.29
57847;BME280;43675;50.030;21.952;2023-08-01T05:09:28;97900.85;;;16.85;81.00
57847;BME280;43675;50.030;21.952;2023-08-01T05:11:54;97900.39;;;16.99;80.70
57847;BME280;43675;50.030;21.952;2023-08-01T05:14:21;97900.80;;;17.12;80.45
57847;BME280;43675;50.030;21.952;2023-08-01T05:16:47;97893.91;;;17.25;80.25
57847;BME280;43675;50.030;21.952;2023-08-01T05:19:14;97890.88;;;17.40;79.71
57847;BME280;43675;50.030;21.952;2023-08-01T05:21:40;97887.20;;;17.54;79.41
57847;BME280;43675;50.030;21.952;2023-08-01T05:24:07;97888.30;;;17.68;79.01
57847;BME280;43675;50.030;21.952;2023-08-01T05:26:33;97887.95;;;17.83;78.82
57847;BME280;43675;50.030;21.952;2023-08-01T05:29:00;97892.27;;;17.99;78.57
57847;BME280;43675;50.030;21.952;2023-08-01T05:31:26;97886.06;;;18.15;78.20
57847;BME280;43675;50.030;21.952;2023-08-01T05:33:53;97887.47;;;18.31;77.80
57847;BME280;43675;50.030;21.952;2023-08-01T05:36:19;97884.73;;;18.50;77.63
57847;BME280;43675;50.030;21.952;2023-08-01T05:38:46;97885.89;;;18.69;77.26
57847;BME280;43675;50.030;21.952;2023-08-01T05:41:12;97880.91;;;18.88;76.75
57847;BME280;43675;50.030;21.952;2023-08-01T05:43:39;97879.35;;;19.07;76.30
57847;BME280;43675;50.030;21.952;2023-08-01T05:46:06;97884.20;;;19.26;75.93
57847;BME280;43675;50.030;21.952;2023-08-01T05:48:32;97878.20;;;19.44;75.41
57847;BME280;43675;50.030;21.952;2023-08-01T05:50:59;97877.38;;;19.58;74.72
57847;BME280;43675;50.030;21.952;2023-08-01T05:53:25;97878.17;;;19.72;74.52
57847;BME280;43675;50.030;21.952;2023-08-01T05:55:52;97880.61;;;19.86;74.10
57847;BME280;43675;50.030;21.952;2023-08-01T05:58:18;97872.02;;;20.00;73.79
57847;BME280;43675;50.030;21.952;2023-08-01T06:00:45;97870.10;;;20.16;73.50
57847;BME280;43675;50.030;21.952;2023-08-01T06:03:11;97869.72;;;20.30;73.40
57847;BME280;43675;50.030;21.952;2023-08-01T06:05:38;97869.20;;;20.44;73.06
57847;BME280;43675;50.030;21.952;2023-08-01T06:08:06;97866.14;;;20.59;72.67
57847;BME280;43675;50.030;21.952;2023-08-01T06:10:34;97862.92;;;20.76;72.08
57847;BME280;43675;50.030;21.952;2023-08-01T06:13:01;97861.89;;;20.94;71.65
57847;BME280;43675;50.030;21.952;2023-08-01T06:15:27;97863.04;;;21.12;71.42
57847;BME280;43675;50.030;21.952;2023-08-01T06:17:54;97860.81;;;21.26;71.08
57847;BME280;43675;50.030;21.952;2023-08-01T06:20:20;97863.17;;;21.40;70.83
57847;BME280;43675;50.030;21.952;2023-08-01T06:22:47;97865.60;;;21.51;70.24
57847;BME280;43675;50.030;21.952;2023-08-01T06:25:13;97860.83;;;21.62;70.00
57847;BME280;43675;50.030;21.952;2023-08-01T06:27:40;97867.02;;;21.72;69.43
57847;BME280;43675;50.030;21.952;2023-08-01T06:30:07;97864.89;;;21.84;69.07
57847;BME280;43675;50.030;21.952;2023-08-01T06:32:34;97862.84;;;21.96;68.59
57847;BME280;43675;50.030;21.952;2023-08-01T06:35:00;97861.73;;;22.12;68.32
57847;BME280;43675;50.030;21.952;2023-08-01T06:37:27;97854.40;;;22.28;68.31
57847;BME280;43675;50.030;21.952;2023-08-01T06:39:55;97854.39;;;22.44;67.65
57847;BME280;43675;50.030;21.952;2023-08-01T06:42:21;97857.76;;;22.58;66.63
57847;BME280;43675;50.030;21.952;2023-08-01T06:44:48;97853.58;;;22.70;65.96
57847;BME280;43675;50.030;21.952;2023-08-01T06:47:14;97850.50;;;22.76;65.63
57847;BME280;43675;50.030;21.952;2023-08-01T06:49:41;97848.84;;;22.77;65.25
57847;BME280;43675;50.030;21.952;2023-08-01T06:52:07;97844.67;;;22.76;65.11
57847;BME280;43675;50.030;21.952;2023-08-01T06:54:34;97835.83;;;22.76;64.85
57847;BME280;43675;50.030;21.952;2023-08-01T06:57:00;97834.66;;;22.77;64.82
57847;BME280;43675;50.030;21.952;2023-08-01T06:59:27;97832.30;;;22.79;64.64
57847;BME280;43675;50.030;21.952;2023-08-01T07:01:53;97834.64;;;22.82;64.53
57847;BME280;43675;50.030;21.952;2023-08-01T07:04:20;97827.46;;;22.87;64.69
57847;BME280;43675;50.030;21.952;2023-08-01T07:06:47;97825.34;;;22.94;64.39
57847;BME280;43675;50.030;21.952;2023-08-01T07:09:13;97824.71;;;23.07;64.66
57847;BME280;43675;50.030;21.952;2023-08-01T07:11:39;97822.90;;;23.21;64.22
57847;BME280;43675;50.030;21.952;2023-08-01T07:14:06;97821.33;;;23.38;63.80
57847;BME280;43675;50.030;21.952;2023-08-01T07:16:32;97815.98;;;23.58;63.24
57847;BME280;43675;50.030;21.952;2023-08-01T07:19:00;97812.14;;;23.81;62.89
57847;BME280;43675;50.030;21.952;2023-08-01T07:21:27;97807.48;;;24.10;62.34
57847;BME280;43675;50.030;21.952;2023-08-01T07:23:54;97800.75;;;24.37;61.50
57847;BME280;43675;50.030;21.952;2023-08-01T07:26:20;97796.83;;;24.60;60.93
57847;BME280;43675;50.030;21.952;2023-08-01T07:28:47;97788.65;;;24.81;60.40
57847;BME280;43675;50.030;21.952;2023-08-01T07:31:13;97789.07;;;25.02;59.95
57847;BME280;43675;50.030;21.952;2023-08-01T07:33:40;97788.23;;;25.26;59.77
57847;BME280;43675;50.030;21.952;2023-08-01T07:36:06;97784.02;;;25.56;59.18
57847;BME280;43675;50.030;21.952;2023-08-01T07:38:33;97778.87;;;25.89;58.49
57847;BME280;43675;50.030;21.952;2023-08-01T07:41:06;97772.60;;;26.20;57.61
57847;BME280;43675;50.030;21.952;2023-08-01T07:43:32;97773.66;;;26.48;56.79
57847;BME280;43675;50.030;21.952;2023-08-01T07:45:59;97776.65;;;26.68;56.28
57847;BME280;43675;50.030;21.952;2023-08-01T07:48:26;97778.98;;;26.80;55.45
57847;BME280;43675;50.030;21.952;2023-08-01T07:50:53;97778.91;;;26.90;55.10
57847;BME280;43675;50.030;21.952;2023-08-01T07:53:19;97776.11;;;26.97;54.79
57847;BME280;43675;50.030;21.952;2023-08-01T07:55:46;97771.07;;;26.99;54.51
57847;BME280;43675;50.030;21.952;2023-08-01T07:58:12;97764.55;;;26.98;54.24
57847;BME280;43675;50.030;21.952;2023-08-01T08:00:39;97764.98;;;26.92;53.98
57847;BME280;43675;50.030;21.952;2023-08-01T08:03:05;97763.23;;;26.85;53.91
57847;BME280;43675;50.030;21.952;2023-08-01T08:05:32;97765.46;;;26.81;53.59
57847;BME280;43675;50.030;21.952;2023-08-01T08:07:58;97762.30;;;26.83;53.27
57847;BME280;43675;50.030;21.952;2023-08-01T08:10:25;97761.33;;;26.91;53.10
57847;BME280;43675;50.030;21.952;2023-08-01T08:12:51;97761.95;;;27.00;52.62
57847;BME280;43675;50.030;21.952;2023-08-01T08:15:18;97761.98;;;27.10;52.36
57847;BME280;43675;50.030;21.952;2023-08-01T08:17:44;97765.55;;;27.16;51.60
57847;BME280;43675;50.030;21.952;2023-08-01T08:20:11;97765.66;;;27.24;51.36
57847;BME280;43675;50.030;21.952;2023-08-01T08:22:37;97766.80;;;27.40;51.04
57847;BME280;43675;50.030;21.952;2023-08-01T08:25:04;97766.79;;;27.67;50.22
57847;BME280;43675;50.030;21.952;2023-08-01T08:27:31;97768.03;;;28.03;49.62
57847;BME280;43675;50.030;21.952;2023-08-01T08:29:57;97766.34;;;28.34;48.08
57847;BME280;43675;50.030;21.952;2023-08-01T08:32:24;97767.60;;;28.60;46.99
57847;BME280;43675;50.030;21.952;2023-08-01T08:34:50;97767.04;;;28.76;46.05
57847;BME280;43675;50.030;21.952;2023-08-01T08:37:17;97762.48;;;28.87;45.73
57847;BME280;43675;50.030;21.952;2023-08-01T08:39:43;97762.76;;;28.95;45.49
57847;BME280;43675;50.030;21.952;2023-08-01T08:42:10;97764.09;;;29.04;45.28
57847;BME280;43675;50.030;21.952;2023-08-01T08:44:42;97759.38;;;29.14;45.10
57847;BME280;43675;50.030;21.952;2023-08-01T08:47:10;97758.48;;;29.23;44.91
57847;BME280;43675;50.030;21.952;2023-08-01T08:49:38;97756.30;;;29.30;44.52
57847;BME280;43675;50.030;21.952;2023-08-01T08:52:06;97758.98;;;29.34;43.93
57847;BME280;43675;50.030;21.952;2023-08-01T08:54:33;97757.02;;;29.36;44.10
57847;BME280;43675;50.030;21.952;2023-08-01T08:57:06;97753.60;;;29.39;44.12
57847;BME280;43675;50.030;21.952;2023-08-01T08:59:34;97746.36;;;29.44;44.15
57847;BME280;43675;50.030;21.952;2023-08-01T09:02:02;97742.65;;;29.47;43.54
57847;BME280;43675;50.030;21.952;2023-08-01T09:04:30;97742.13;;;29.51;43.20
57847;BME280;43675;50.030;21.952;2023-08-01T09:07:06;97746.27;;;29.57;42.94
57847;BME280;43675;50.030;21.952;2023-08-01T09:09:34;97751.21;;;29.59;42.76
57847;BME280;43675;50.030;21.952;2023-08-01T09:12:01;97749.73;;;29.63;42.47
57847;BME280;43675;50.030;21.952;2023-08-01T09:14:27;97742.17;;;29.65;41.53
57847;BME280;43675;50.030;21.952;2023-08-01T09:16:54;97742.43;;;29.69;41.14
57847;BME280;43675;50.030;21.952;2023-08-01T09:19:23;97743.41;;;29.84;41.18
57847;BME280;43675;50.030;21.952;2023-08-01T09:21:50;97744.58;;;30.01;41.07
57847;BME280;43675;50.030;21.952;2023-08-01T09:24:18;97736.98;;;30.13;40.63
57847;BME280;43675;50.030;21.952;2023-08-01T09:26:47;97744.31;;;30.12;40.21
57847;BME280;43675;50.030;21.952;2023-08-01T09:29:18;97738.36;;;30.10;39.88
57847;BME280;43675;50.030;21.952;2023-08-01T09:31:44;97736.35;;;30.09;39.90
57847;BME280;43675;50.030;21.952;2023-08-01T09:34:27;97734.88;;;30.10;40.07
57847;BME280;43675;50.030;21.952;2023-08-01T09:37:00;97733.09;;;30.12;39.86
57847;BME280;43675;50.030;21.952;2023-08-01T09:39:27;97723.84;;;30.20;39.80
57847;BME280;43675;50.030;21.952;2023-08-01T09:44:25;97725.61;;;30.41;39.40
57847;BME280;43675;50.030;21.952;2023-08-01T09:47:05;97721.92;;;30.55;39.28
57847;BME280;43675;50.030;21.952;2023-08-01T09:49:32;97718.45;;;30.60;38.65
57847;BME280;43675;50.030;21.952;2023-08-01T09:51:58;97713.48;;;30.61;38.70
57847;BME280;43675;50.030;21.952;2023-08-01T09:54:25;97711.36;;;30.66;38.42
57847;BME280;43675;50.030;21.952;2023-08-01T09:56:53;97714.33;;;30.77;38.18
57847;BME280;43675;50.030;21.952;2023-08-01T09:59:24;97710.27;;;30.90;38.18
57847;BME280;43675;50.030;21.952;2023-08-01T10:01:53;97705.52;;;31.04;38.39
57847;BME280;43675;50.030;21.952;2023-08-01T10:04:27;97709.73;;;31.14;38.05
57847;BME280;43675;50.030;21.952;2023-08-01T10:06:59;97703.99;;;31.22;37.99
57847;BME280;43675;50.030;21.952;2023-08-01T10:09:26;97706.67;;;31.21;37.93
57847;BME280;43675;50.030;21.952;2023-08-01T10:11:56;97704.64;;;31.17;37.79
57847;BME280;43675;50.030;21.952;2023-08-01T10:14:23;97708.38;;;31.13;38.13
57847;BME280;43675;50.030;21.952;2023-08-01T10:16:51;97704.38;;;31.11;37.96
57847;BME280;43675;50.030;21.952;2023-08-01T10:19:19;97701.62;;;31.07;37.85
57847;BME280;43675;50.030;21.952;2023-08-01T10:21:47;97702.40;;;31.05;38.12
57847;BME280;43675;50.030;21.952;2023-08-01T10:24:15;97707.17;;;31.03;37.91
57847;BME280;43675;50.030;21.952;2023-08-01T10:26:44;97712.20;;;30.96;37.71
57847;BME280;43675;50.030;21.952;2023-08-01T10:29:11;97710.91;;;30.95;37.95
57847;BME280;43675;50.030;21.952;2023-08-01T10:31:38;97703.84;;;30.94;37.89
57847;BME280;43675;50.030;21.952;2023-08-01T10:34:08;97707.05;;;30.92;37.80
57847;BME280;43675;50.030;21.952;2023-08-01T10:36:38;97701.39;;;30.89;38.10
57847;BME280;43675;50.030;21.952;2023-08-01T10:39:05;97706.58;;;30.87;38.38
57847;BME280;43675;50.030;21.952;2023-08-01T10:41:32;97704.98;;;30.77;38.21
57847;BME280;43675;50.030;21.952;2023-08-01T10:44:16;97697.27;;;30.62;38.25
57847;BME280;43675;50.030;21.952;2023-08-01T10:49:17;97694.41;;;30.35;38.82
57847;BME280;43675;50.030;21.952;2023-08-01T10:51:44;97698.23;;;30.25;38.82
57847;BME280;43675;50.030;21.952;2023-08-01T10:54:21;97695.34;;;30.14;39.39
57847;BME280;43675;50.030;21.952;2023-08-01T10:56:51;97699.33;;;30.03;39.44
57847;BME280;43675;50.030;21.952;2023-08-01T10:59:19;97696.53;;;29.94;39.74
57847;BME280;43675;50.030;21.952;2023-08-01T11:01:53;97695.50;;;29.83;39.68
57847;BME280;43675;50.030;21.952;2023-08-01T11:04:21;97691.30;;;29.72;40.24
57847;BME280;43675;50.030;21.952;2023-08-01T11:06:49;97684.55;;;29.63;40.20
57847;BME280;43675;50.030;21.952;2023-08-01T11:09:22;97685.55;;;29.57;40.40
57847;BME280;43675;50.030;21.952;2023-08-01T11:11:54;97681.61;;;29.62;40.63
57847;BME280;43675;50.030;21.952;2023-08-01T11:14:22;97681.60;;;29.76;40.72
57847;BME280;43675;50.030;21.952;2023-08-01T11:16:49;97679.68;;;29.93;40.84
57847;BME280;43675;50.030;21.952;2023-08-01T11:19:27;97675.30;;;30.08;40.54
57847;BME280;43675;50.030;21.952;2023-08-01T11:21:55;97671.46;;;30.22;40.41
57847;BME280;43675;50.030;21.952;2023-08-01T11:24:24;97667.10;;;30.35;40.29
57847;BME280;43675;50.030;21.952;2023-08-01T11:26:53;97666.36;;;30.48;40.05
57847;BME280;43675;50.030;21.952;2023-08-01T11:29:20;97665.23;;;30.61;39.99
57847;BME280;43675;50.030;21.952;2023-08-01T11:34:19;97653.27;;;30.70;39.81
57847;BME280;43675;50.030;21.952;2023-08-01T11:36:46;97650.61;;;30.62;39.49
57847;BME280;43675;50.030;21.952;2023-08-01T11:39:13;97650.31;;;30.55;39.56
57847;BME280;43675;50.030;21.952;2023-08-01T11:41:42;97646.88;;;30.48;39.74
57847;BME280;43675;50.030;21.952;2023-08-01T11:44:09;97640.08;;;30.40;39.65
57847;BME280;43675;50.030;21.952;2023-08-01T11:46:35;97635.96;;;30.31;39.46
57847;BME280;43675;50.030;21.952;2023-08-01T11:49:02;97633.05;;;30.23;39.76
57847;BME280;43675;50.030;21.952;2023-08-01T11:51:29;97632.57;;;30.14;39.85
57847;BME280;43675;50.030;21.952;2023-08-01T11:54:03;97631.70;;;30.05;39.94
57847;BME280;43675;50.030;21.952;2023-08-01T11:56:30;97626.42;;;29.97;40.01
57847;BME280;43675;50.030;21.952;2023-08-01T11:58:57;97621.39;;;29.99;40.14
57847;BME280;43675;50.030;21.952;2023-08-01T12:01:24;97622.25;;;30.12;40.57
57847;BME280;43675;50.030;21.952;2023-08-01T12:03:51;97617.40;;;30.32;40.12
57847;BME280;43675;50.030;21.952;2023-08-01T12:06:21;97615.40;;;30.57;39.85
57847;BME280;43675;50.030;21.952;2023-08-01T12:08:52;97609.73;;;30.79;39.40
57847;BME280;43675;50.030;21.952;2023-08-01T12:11:27;97606.35;;;30.96;38.79
57847;BME280;43675;50.030;21.952;2023-08-01T12:14:06;97596.98;;;31.03;38.26
57847;BME280;43675;50.030;21.952;2023-08-01T12:16:33;97595.70;;;31.00;38.16
57847;BME280;43675;50.030;21.952;2023-08-01T12:19:00;97590.77;;;30.96;37.93
57847;BME280;43675;50.030;21.952;2023-08-01T12:21:26;97594.46;;;30.89;37.95
57847;BME280;43675;50.030;21.952;2023-08-01T12:23:53;97591.29;;;30.84;37.96
57847;BME280;43675;50.030;21.952;2023-08-01T12:26:19;97589.38;;;30.73;37.84
57847;BME280;43675;50.030;21.952;2023-08-01T12:28:46;97588.58;;;30.62;37.52
57847;BME280;43675;50.030;21.952;2023-08-01T12:31:16;97584.99;;;30.55;37.60
57847;BME280;43675;50.030;21.952;2023-08-01T12:33:42;97582.58;;;30.52;37.71
57847;BME280;43675;50.030;21.952;2023-08-01T12:36:09;97580.46;;;30.53;37.85
57847;BME280;43675;50.030;21.952;2023-08-01T12:38:36;97577.05;;;30.59;37.94
57847;BME280;43675;50.030;21.952;2023-08-01T12:41:02;97583.46;;;30.64;37.91
57847;BME280;43675;50.030;21.952;2023-08-01T12:43:29;97578.73;;;30.69;37.53
57847;BME280;43675;50.030;21.952;2023-08-01T12:45:55;97583.33;;;30.75;37.36
57847;BME280;43675;50.030;21.952;2023-08-01T12:48:22;97581.17;;;30.80;37.40
57847;BME280;43675;50.030;21.952;2023-08-01T12:50:48;97579.18;;;30.84;37.19
57847;BME280;43675;50.030;21.952;2023-08-01T12:53:15;97578.81;;;30.86;37.59
57847;BME280;43675;50.030;21.952;2023-08-01T12:55:43;97575.70;;;30.90;37.45
57847;BME280;43675;50.030;21.952;2023-08-01T12:58:10;97572.23;;;31.00;37.78